Time;durP1;ratioP1;P1;durP2;ratioP2;P2;SDS_P1;SDS_P2;PMS_P1;PMS_P2;Temp;Humidity;BMP_temperature;BMP_pressure;BME280_temperature;BME280_humidity;BME280_pressure;Samples;Min_cycle;Max_cycle;Signal;HPM_P1;HPM_P2
2023/01/27 00:01:40;;;;;;;0.30;0.30;;;11.20;50.60;;;;;;5097623;28;20069;-85
2023/01/27 00:04:05;;;;;;;0.30;0.30;;;10.80;49.20;;;;;;5073433;28;20036;-85
2023/01/27 00:06:31;;;;;;;0.20;0.20;;;10.50;50.40;;;;;;5091299;28;20020;-87
2023/01/27 00:08:57;;;;;;;0.28;0.28;;;9.80;50.70;;;;;;5073428;28;20519;-85
2023/01/27 00:14:07;;;;;;;0.30;0.30;;;10.40;52.90;;;;;;5111696;28;20034;-86
2023/01/27 00:16:32;;;;;;;0.30;0.30;;;10.80;51.70;;;;;;5092937;28;20016;-85
2023/01/27 00:18:58;;;;;;;0.30;0.30;;;10.40;51.50;;;;;;5111459;28;20096;-87
2023/01/27 00:26:56;;;;;;;0.30;0.30;;;9.60;50.90;;;;;;5091465;28;20154;-86
2023/01/27 00:29:22;;;;;;;0.30;0.30;;;9.70;52.00;;;;;;5073154;28;20115;-85
2023/01/27 00:34:31;;;;;;;0.30;0.30;;;9.60;51.20;;;;;;5090737;28;20036;-85
2023/01/27 00:36:57;;;;;;;0.30;0.30;;;9.60;52.00;;;;;;5072883;28;20024;-87
2023/01/27 00:39:23;;;;;;;0.20;0.20;;;10.00;52.50;;;;;;5084562;28;20470;-88
2023/01/27 00:41:48;;;;;;;0.30;0.30;;;10.40;52.40;;;;;;5070335;28;20471;-86
2023/01/27 00:44:14;;;;;;;0.20;0.20;;;10.40;51.70;;;;;;5052817;28;20021;-85
2023/01/27 00:46:41;;;;;;;0.30;0.30;;;10.20;52.60;;;;;;5078355;28;20458;-86
2023/01/27 00:49:08;;;;;;;0.30;0.30;;;10.30;53.30;;;;;;5072066;28;20019;-87
2023/01/27 00:51:35;;;;;;;0.30;0.30;;;10.30;53.70;;;;;;5072615;28;20017;-86
2023/01/27 00:54:01;;;;;;;0.30;0.30;;;10.60;53.10;;;;;;5072111;28;20375;-86
2023/01/27 00:56:28;;;;;;;0.40;0.40;;;10.90;52.70;;;;;;5071993;28;20051;-84
2023/01/27 00:58:54;;;;;;;0.30;0.30;;;11.10;51.60;;;;;;5068011;28;20055;-87
2023/01/27 01:01:20;;;;;;;0.30;0.30;;;11.10;51.30;;;;;;5090425;28;20040;-85
2023/01/27 01:03:45;;;;;;;0.30;0.30;;;11.10;51.60;;;;;;5087574;28;20059;-85
2023/01/27 01:06:15;;;;;;;0.30;0.30;;;11.20;51.40;;;;;;5076935;28;20020;-85
2023/01/27 01:08:41;;;;;;;0.30;0.30;;;11.30;51.70;;;;;;5057861;28;20478;-86
2023/01/27 01:11:10;;;;;;;0.30;0.30;;;11.40;51.90;;;;;;5076823;28;20281;-86
2023/01/27 01:13:35;;;;;;;0.20;0.20;;;11.30;51.60;;;;;;5076543;28;20039;-86
2023/01/27 01:16:25;;;;;;;0.30;0.30;;;10.90;51.90;;;;;;5076515;28;20017;-86
2023/01/27 01:18:50;;;;;;;0.25;0.25;;;11.00;52.10;;;;;;5058264;28;20013;-85
2023/01/27 01:21:16;;;;;;;0.30;0.30;;;11.00;51.50;;;;;;5058704;28;20031;-84
2023/01/27 01:23:43;;;;;;;0.32;0.32;;;10.30;52.70;;;;;;5058695;28;20107;-88
2023/01/27 01:26:14;;;;;;;0.30;0.30;;;10.00;53.60;;;;;;5076419;28;20025;-86
2023/01/27 01:28:39;;;;;;;0.30;0.30;;;10.10;54.40;;;;;;5058405;28;20020;-85
2023/01/27 01:31:11;;;;;;;0.30;0.30;;;10.10;54.60;;;;;;5040801;28;20024;-86
2023/01/27 01:33:37;;;;;;;0.30;0.30;;;10.40;53.20;;;;;;5056294;28;20033;-87
2023/01/27 01:36:08;;;;;;;0.35;0.35;;;10.40;53.10;;;;;;5038901;28;20028;-85
2023/01/27 01:38:34;;;;;;;0.30;0.30;;;10.50;53.70;;;;;;5056085;28;20029;-86
2023/01/27 01:41:00;;;;;;;0.30;0.30;;;10.50;53.60;;;;;;5054825;28;20035;-87
2023/01/27 01:43:27;;;;;;;0.30;0.30;;;10.70;52.60;;;;;;5076346;28;20021;-85
2023/01/27 01:45:59;;;;;;;0.40;0.40;;;10.70;51.50;;;;;;5058111;28;20028;-86
2023/01/27 01:48:35;;;;;;;0.38;0.38;;;10.30;50.90;;;;;;5058069;28;20114;-85
2023/01/27 01:51:18;;;;;;;0.40;0.40;;;9.10;52.10;;;;;;5053920;28;20024;-85
2023/01/27 01:54:07;;;;;;;0.30;0.30;;;8.80;52.30;;;;;;5055703;28;20045;-85
2023/01/27 01:56:41;;;;;;;0.30;0.30;;;9.10;53.40;;;;;;5037963;28;20532;-85
2023/01/27 01:59:15;;;;;;;0.30;0.30;;;9.70;54.50;;;;;;5071367;28;20025;-85
2023/01/27 02:01:41;;;;;;;0.30;0.30;;;10.00;54.30;;;;;;5057902;28;20017;-86
2023/01/27 02:04:16;;;;;;;0.30;0.30;;;10.10;52.60;;;;;;5058103;28;20020;-85
2023/01/27 02:06:53;;;;;;;0.30;0.30;;;10.40;51.60;;;;;;5057999;28;20024;-85
2023/01/27 02:09:21;;;;;;;0.30;0.30;;;10.10;51.80;;;;;;5074980;28;20029;-87
2023/01/27 02:11:50;;;;;;;0.30;0.30;;;10.30;51.50;;;;;;5058245;28;20107;-86
2023/01/27 02:14:17;;;;;;;0.30;0.30;;;10.30;50.80;;;;;;5075663;28;20086;-85
2023/01/27 02:16:43;;;;;;;0.30;0.30;;;10.20;51.10;;;;;;5056749;28;20028;-85
2023/01/27 02:19:34;;;;;;;0.25;0.25;;;10.40;50.60;;;;;;5057202;28;20020;-86
2023/01/27 02:22:02;;;;;;;0.30;0.30;;;10.40;50.90;;;;;;5057426;28;20025;-85
2023/01/27 02:24:36;;;;;;;0.30;0.30;;;10.50;50.80;;;;;;5057408;28;20048;-86
2023/01/27 02:27:01;;;;;;;0.30;0.30;;;10.90;51.00;;;;;;5074924;28;20075;-84
2023/01/27 02:29:27;;;;;;;0.30;0.30;;;10.70;52.30;;;;;;5056849;28;20028;-85
2023/01/27 02:31:54;;;;;;;0.40;0.40;;;10.90;52.20;;;;;;5075087;28;20096;-85
2023/01/27 02:34:29;;;;;;;0.30;0.30;;;11.00;51.90;;;;;;5075413;28;20051;-87
2023/01/27 02:36:59;;;;;;;0.40;0.40;;;11.00;51.70;;;;;;5075383;28;20503;-85
2023/01/27 02:39:32;;;;;;;0.30;0.30;;;11.00;51.50;;;;;;5074708;28;20102;-84
2023/01/27 02:41:59;;;;;;;0.30;0.30;;;11.10;51.50;;;;;;5067983;28;20108;-88
2023/01/27 02:44:24;;;;;;;0.30;0.30;;;11.10;51.80;;;;;;5036867;28;20021;-85
2023/01/27 02:46:50;;;;;;;0.30;0.30;;;10.90;51.80;;;;;;5043072;28;20023;-85
2023/01/27 02:49:16;;;;;;;0.30;0.30;;;10.90;51.90;;;;;;5074894;28;20029;-86
2023/01/27 02:51:43;;;;;;;0.30;0.30;;;10.80;52.00;;;;;;5056460;28;20100;-85
2023/01/27 02:54:09;;;;;;;0.40;0.40;;;10.70;52.20;;;;;;5056464;28;20057;-85
2023/01/27 02:56:35;;;;;;;0.20;0.20;;;10.70;51.90;;;;;;5074241;28;20020;-85
2023/01/27 02:59:08;;;;;;;0.30;0.30;;;10.70;51.80;;;;;;5056966;28;20366;-86
2023/01/27 03:01:33;;;;;;;0.30;0.30;;;10.70;51.80;;;;;;5074624;28;20012;-84
2023/01/27 03:03:59;;;;;;;0.30;0.30;;;10.70;51.90;;;;;;5056877;28;20082;-84
2023/01/27 03:06:25;;;;;;;0.40;0.40;;;10.80;51.50;;;;;;5056367;28;20044;-86
2023/01/27 03:08:51;;;;;;;0.40;0.40;;;10.70;51.50;;;;;;5056605;28;20402;-85
2023/01/27 03:12:18;;;;;;;0.30;0.30;;;10.50;51.60;;;;;;5074099;28;20028;-84
2023/01/27 03:14:02;;;;;;;0.30;0.30;;;10.40;51.60;;;;;;5074301;28;20032;-86
2023/01/27 03:19:14;;;;;;;0.40;0.40;;;9.50;53.10;;;;;;5091865;27;20415;-85
2023/01/27 03:21:40;;;;;;;0.30;0.30;;;9.50;53.80;;;;;;5090200;28;20417;-85
2023/01/27 03:24:05;;;;;;;0.30;0.30;;;9.30;54.20;;;;;;5091449;28;20417;-84
2023/01/27 03:26:31;;;;;;;0.30;0.30;;;9.20;54.40;;;;;;5087665;28;20013;-85
2023/01/27 03:31:41;;;;;;;0.40;0.40;;;9.60;54.30;;;;;;5071224;28;20028;-84
2023/01/27 03:34:06;;;;;;;0.30;0.30;;;9.80;53.50;;;;;;5069853;28;20479;-85
2023/01/27 03:47:28;;;;;;;0.40;0.40;;;9.10;54.70;;;;;;5082987;28;20366;-84
2023/01/27 03:49:54;;;;;;;0.30;0.30;;;8.90;55.60;;;;;;5089702;28;20024;-86
2023/01/27 03:52:20;;;;;;;0.22;0.22;;;8.70;55.50;;;;;;5090192;28;20414;-86
2023/01/27 03:54:45;;;;;;;0.30;0.30;;;8.70;56.10;;;;;;5090122;28;20042;-86
2023/01/27 03:57:11;;;;;;;0.30;0.30;;;8.60;56.20;;;;;;5076653;28;20063;-87
2023/01/27 03:59:37;;;;;;;0.38;0.38;;;8.80;56.20;;;;;;5069490;28;20020;-84
2023/01/27 04:07:34;;;;;;;0.30;0.30;;;9.10;55.50;;;;;;5071278;28;20459;-85
2023/01/27 04:09:59;;;;;;;0.32;0.32;;;9.20;55.50;;;;;;5069349;28;20382;-84
2023/01/27 04:12:25;;;;;;;0.30;0.30;;;8.90;55.70;;;;;;5070333;28;20467;-85
2023/01/27 04:14:51;;;;;;;0.40;0.40;;;8.40;55.90;;;;;;5069572;28;20455;-83
2023/01/27 04:17:18;;;;;;;0.30;0.30;;;8.00;57.30;;;;;;5075740;28;20093;-84
2023/01/27 04:19:45;;;;;;;0.30;0.30;;;7.90;57.50;;;;;;5090606;28;20024;-88
2023/01/27 04:22:12;;;;;;;0.30;0.30;;;8.00;57.80;;;;;;5090541;28;20038;-89
2023/01/27 04:24:38;;;;;;;0.32;0.32;;;8.50;57.00;;;;;;5089511;28;20051;-86
2023/01/27 04:27:10;;;;;;;0.30;0.30;;;8.80;56.20;;;;;;5085157;28;20455;-83
2023/01/27 04:29:39;;;;;;;0.30;0.30;;;8.70;56.30;;;;;;5061468;28;20486;-86
2023/01/27 04:32:08;;;;;;;0.30;0.30;;;9.00;56.20;;;;;;5055854;28;20016;-85
2023/01/27 04:34:34;;;;;;;0.30;0.30;;;9.30;55.50;;;;;;5057051;28;20367;-87
2023/01/27 04:37:02;;;;;;;0.35;0.35;;;9.40;54.40;;;;;;5056988;28;20017;-84
2023/01/27 04:39:28;;;;;;;0.30;0.30;;;9.40;54.80;;;;;;5055334;28;20021;-86
2023/01/27 04:41:55;;;;;;;0.30;0.30;;;9.60;54.40;;;;;;5055430;28;20061;-84
2023/01/27 04:44:21;;;;;;;0.30;0.30;;;9.20;55.00;;;;;;5055364;28;20344;-84
2023/01/27 04:46:47;;;;;;;0.30;0.30;;;9.20;54.80;;;;;;5054814;28;20447;-86
2023/01/27 04:49:13;;;;;;;0.30;0.30;;;9.10;54.80;;;;;;5057081;28;20032;-89
2023/01/27 04:51:39;;;;;;;0.35;0.35;;;9.20;54.90;;;;;;5056748;28;20017;-86
2023/01/27 04:56:39;;;;;;;0.32;0.32;;;9.20;54.20;;;;;;5065341;27;1619553;-83
2023/01/27 04:59:07;;;;;;;0.35;0.35;;;8.70;55.50;;;;;;5107414;28;20470;-85
2023/01/27 05:01:33;;;;;;;0.35;0.35;;;8.70;55.70;;;;;;5106531;28;20012;-85
2023/01/27 05:03:59;;;;;;;0.38;0.38;;;8.60;55.90;;;;;;5087702;28;20027;-88
2023/01/27 05:06:26;;;;;;;0.30;0.30;;;8.80;55.70;;;;;;5073521;28;20020;-89
2023/01/27 05:08:52;;;;;;;0.40;0.40;;;8.90;55.50;;;;;;5091218;28;20058;-86
2023/01/27 05:11:18;;;;;;;0.30;0.30;;;8.80;55.60;;;;;;5094023;28;20020;-85
2023/01/27 05:13:44;;;;;;;0.30;0.30;;;8.50;56.00;;;;;;5111828;28;20028;-86
2023/01/27 05:16:12;;;;;;;0.30;0.30;;;8.70;55.80;;;;;;5093416;28;20024;-82
2023/01/27 05:18:38;;;;;;;0.30;0.30;;;8.60;55.60;;;;;;5091621;28;20091;-84
2023/01/27 05:21:05;;;;;;;0.30;0.30;;;8.70;55.40;;;;;;5094955;28;20042;-83
2023/01/27 05:23:34;;;;;;;0.30;0.30;;;8.80;55.40;;;;;;5090888;28;20016;-84
2023/01/27 05:26:05;;;;;;;0.40;0.40;;;8.90;55.10;;;;;;5091094;28;20024;-86
2023/01/27 05:28:32;;;;;;;0.30;0.30;;;8.70;55.60;;;;;;5090704;28;20063;-85
2023/01/27 05:31:09;;;;;;;0.40;0.40;;;8.60;55.80;;;;;;5111413;28;20047;-86
2023/01/27 05:33:35;;;;;;;0.40;0.40;;;8.80;55.50;;;;;;5111196;28;20042;-83
2023/01/27 05:36:02;;;;;;;0.40;0.40;;;9.00;55.30;;;;;;5092738;28;20040;-82
2023/01/27 05:38:29;;;;;;;0.30;0.30;;;9.10;54.70;;;;;;5088399;28;20016;-90
2023/01/27 05:41:00;;;;;;;0.40;0.40;;;9.10;54.90;;;;;;5072657;28;20032;-84
2023/01/27 05:43:31;;;;;;;0.30;0.30;;;9.00;54.40;;;;;;5072700;28;20023;-86
2023/01/27 05:46:05;;;;;;;0.30;0.30;;;8.60;55.20;;;;;;5072639;28;20067;-85
2023/01/27 05:48:31;;;;;;;0.40;0.40;;;8.70;55.40;;;;;;5070293;28;20367;-83
2023/01/27 05:50:57;;;;;;;0.40;0.40;;;9.00;54.90;;;;;;5069294;28;20477;-82
2023/01/27 05:53:23;;;;;;;0.40;0.40;;;9.20;54.70;;;;;;5062390;28;20028;-82
2023/01/27 05:55:50;;;;;;;0.40;0.40;;;9.10;54.70;;;;;;5052374;28;20051;-83
2023/01/27 05:58:16;;;;;;;0.40;0.40;;;9.10;54.60;;;;;;5067743;28;20093;-83
2023/01/27 06:00:42;;;;;;;0.40;0.40;;;9.10;54.70;;;;;;5090507;28;20052;-84
2023/01/27 06:03:08;;;;;;;0.35;0.35;;;9.20;54.90;;;;;;5072171;28;20016;-88
2023/01/27 06:05:34;;;;;;;0.30;0.30;;;9.30;54.30;;;;;;5087947;28;20104;-83
2023/01/27 06:08:00;;;;;;;0.30;0.30;;;9.10;54.30;;;;;;5058525;28;20021;-82
2023/01/27 06:10:25;;;;;;;0.40;0.40;;;9.10;54.30;;;;;;5058665;28;20069;-83
2023/01/27 06:12:53;;;;;;;0.30;0.30;;;9.00;54.90;;;;;;5076191;28;20032;-88
2023/01/27 06:15:19;;;;;;;0.30;0.30;;;9.10;54.70;;;;;;5043072;28;20383;-82
2023/01/27 06:17:44;;;;;;;0.30;0.30;;;8.80;54.70;;;;;;5057728;28;20443;-82
2023/01/27 06:20:10;;;;;;;0.30;0.30;;;8.80;55.30;;;;;;5058566;28;20024;-86
2023/01/27 06:22:36;;;;;;;0.30;0.30;;;9.10;55.30;;;;;;5075709;28;20538;-82
2023/01/27 06:25:02;;;;;;;0.30;0.30;;;9.20;55.10;;;;;;5076060;28;20031;-82
2023/01/27 06:27:27;;;;;;;0.30;0.30;;;9.40;54.60;;;;;;5058386;28;20021;-86
2023/01/27 06:29:53;;;;;;;0.30;0.30;;;9.50;54.60;;;;;;5057353;28;20261;-83
2023/01/27 06:32:19;;;;;;;0.30;0.30;;;9.60;55.20;;;;;;5039754;28;20067;-85
2023/01/27 06:34:44;;;;;;;0.20;0.20;;;9.70;54.20;;;;;;5052059;28;20138;-86
2023/01/27 06:37:10;;;;;;;0.30;0.30;;;9.40;54.40;;;;;;5051846;28;20422;-83
2023/01/27 06:39:36;;;;;;;0.40;0.40;;;9.00;55.30;;;;;;5055722;28;20486;-82
2023/01/27 06:42:03;;;;;;;0.30;0.30;;;9.00;55.50;;;;;;5039520;28;20025;-83
2023/01/27 06:44:29;;;;;;;0.30;0.30;;;9.10;55.30;;;;;;5037804;28;20112;-87
2023/01/27 06:46:55;;;;;;;0.30;0.30;;;9.00;55.10;;;;;;5038362;28;20108;-84
2023/01/27 06:49:20;;;;;;;0.30;0.30;;;8.90;55.80;;;;;;5047442;28;20050;-86
2023/01/27 06:51:46;;;;;;;0.30;0.30;;;9.00;55.20;;;;;;5037995;28;20017;-83
2023/01/27 06:54:11;;;;;;;0.40;0.40;;;9.00;55.10;;;;;;5037796;28;20031;-83
2023/01/27 06:56:37;;;;;;;0.30;0.30;;;9.00;55.10;;;;;;5037266;28;20049;-84
2023/01/27 06:59:03;;;;;;;0.30;0.30;;;9.10;55.30;;;;;;5045676;28;20048;-82
2023/01/27 07:01:31;;;;;;;0.30;0.30;;;9.10;55.20;;;;;;5037957;28;20063;-86
2023/01/27 07:03:57;;;;;;;0.30;0.30;;;9.30;54.90;;;;;;5048371;28;20013;-84
2023/01/27 07:06:23;;;;;;;0.30;0.30;;;9.20;54.70;;;;;;5040380;28;20020;-86
2023/01/27 07:08:49;;;;;;;0.30;0.30;;;9.10;54.70;;;;;;5037706;28;20115;-85
2023/01/27 07:11:15;;;;;;;0.30;0.30;;;9.20;54.90;;;;;;5037844;28;20095;-84
2023/01/27 07:13:41;;;;;;;0.30;0.30;;;9.50;54.50;;;;;;5040572;28;20017;-88
2023/01/27 07:16:07;;;;;;;0.30;0.30;;;9.60;54.40;;;;;;5057464;28;20068;-86
2023/01/27 07:18:32;;;;;;;0.30;0.30;;;9.60;54.00;;;;;;5056725;28;20028;-86
2023/01/27 07:20:58;;;;;;;0.30;0.30;;;9.70;54.20;;;;;;5057499;28;20025;-83
2023/01/27 07:23:24;;;;;;;0.20;0.20;;;9.80;54.10;;;;;;5057429;28;20024;-86
2023/01/27 07:25:50;;;;;;;0.30;0.30;;;9.90;53.80;;;;;;5045762;28;20020;-84
2023/01/27 07:28:15;;;;;;;0.38;0.38;;;10.00;53.40;;;;;;5057407;28;20025;-89
2023/01/27 07:30:42;;;;;;;0.30;0.30;;;10.00;53.20;;;;;;5056759;28;20029;-83
2023/01/27 07:33:10;;;;;;;0.32;0.32;;;10.00;53.50;;;;;;5057138;28;20027;-85
2023/01/27 07:35:38;;;;;;;0.30;0.30;;;10.10;52.90;;;;;;5057157;28;20028;-84
2023/01/27 07:38:05;;;;;;;0.32;0.32;;;9.80;53.50;;;;;;5040773;28;20031;-82
2023/01/27 07:40:31;;;;;;;0.30;0.30;;;9.80;52.60;;;;;;5056820;28;20433;-87
2023/01/27 07:43:00;;;;;;;0.30;0.30;;;9.60;53.30;;;;;;5042933;28;20466;-88
2023/01/27 07:45:27;;;;;;;0.30;0.30;;;9.80;53.50;;;;;;5057381;28;20104;-84
2023/01/27 07:48:04;;;;;;;0.35;0.35;;;10.00;52.60;;;;;;5043183;28;20048;-87
2023/01/27 07:50:30;;;;;;;0.30;0.30;;;10.20;52.60;;;;;;5056040;28;20064;-89
2023/01/27 07:53:02;;;;;;;0.30;0.30;;;10.50;52.30;;;;;;5053022;28;20032;-88
2023/01/27 07:55:29;;;;;;;0.40;0.40;;;10.60;51.10;;;;;;5048900;28;20080;-86
2023/01/27 07:57:56;;;;;;;0.30;0.30;;;10.60;51.30;;;;;;5043790;28;20023;-85
2023/01/27 08:00:22;;;;;;;0.30;0.30;;;10.50;51.70;;;;;;5053566;28;20021;-87
2023/01/27 08:02:55;;;;;;;0.30;0.30;;;10.70;51.80;;;;;;5049941;28;20021;-85
2023/01/27 08:05:22;;;;;;;0.30;0.30;;;10.90;51.10;;;;;;5053466;28;20028;-89
2023/01/27 08:07:48;;;;;;;0.30;0.30;;;11.00;51.20;;;;;;5052538;28;20133;-85
2023/01/27 08:10:16;;;;;;;0.30;0.30;;;11.10;51.00;;;;;;5042727;28;20033;-85
2023/01/27 08:13:13;;;;;;;0.32;0.32;;;11.10;50.50;;;;;;5038374;28;20013;-85
2023/01/27 08:15:39;;;;;;;0.30;0.30;;;11.00;51.00;;;;;;5033448;28;20029;-89
2023/01/27 08:18:04;;;;;;;0.40;0.40;;;11.00;50.90;;;;;;5033558;28;20018;-84
2023/01/27 08:20:31;;;;;;;0.40;0.40;;;10.80;50.70;;;;;;5045500;28;20464;-92
2023/01/27 08:23:10;;;;;;;0.40;0.40;;;10.70;50.70;;;;;;5088534;27;1398019;-91
2023/01/27 08:25:35;;;;;;;0.30;0.30;;;10.60;51.20;;;;;;5093301;28;20032;-85
2023/01/27 08:28:01;;;;;;;0.40;0.40;;;10.50;51.20;;;;;;5098818;28;20089;-88
2023/01/27 08:30:27;;;;;;;0.30;0.30;;;10.60;51.00;;;;;;5091347;28;20028;-87
2023/01/27 08:32:52;;;;;;;0.30;0.30;;;10.60;51.30;;;;;;5073359;28;20027;-89
2023/01/27 08:35:18;;;;;;;0.30;0.30;;;10.70;51.90;;;;;;5073450;28;20031;-88
2023/01/27 08:37:47;;;;;;;0.35;0.35;;;10.70;51.10;;;;;;5073715;28;20044;-84
2023/01/27 08:40:13;;;;;;;0.30;0.30;;;10.50;51.40;;;;;;5074056;28;20028;-84
2023/01/27 08:42:39;;;;;;;0.30;0.30;;;10.30;51.80;;;;;;5059902;28;20036;-86
2023/01/27 08:45:05;;;;;;;0.40;0.40;;;10.20;52.30;;;;;;5061488;28;20080;-87
2023/01/27 08:47:30;;;;;;;0.40;0.40;;;10.30;52.20;;;;;;5053931;28;20074;-83
2023/01/27 08:49:57;;;;;;;0.40;0.40;;;10.50;52.00;;;;;;5052945;28;20033;-83
2023/01/27 08:52:22;;;;;;;0.30;0.30;;;10.50;51.90;;;;;;4715937;28;10000116;-84
2023/01/27 08:54:48;;;;;;;0.40;0.40;;;10.60;51.70;;;;;;5072902;28;20024;-90
2023/01/27 08:57:14;;;;;;;0.32;0.32;;;10.20;51.30;;;;;;5072975;28;20016;-89
2023/01/27 08:59:39;;;;;;;0.30;0.30;;;9.80;52.20;;;;;;5057053;28;20025;-84
2023/01/27 09:02:05;;;;;;;0.30;0.30;;;9.90;52.70;;;;;;5051838;28;20223;-84
2023/01/27 09:04:31;;;;;;;0.30;0.30;;;10.20;52.20;;;;;;5051710;28;20032;-84
2023/01/27 09:06:59;;;;;;;0.30;0.30;;;10.60;52.00;;;;;;5051633;28;20471;-84
2023/01/27 09:09:24;;;;;;;0.30;0.30;;;10.80;50.80;;;;;;5052102;28;20029;-84
2023/01/27 09:11:50;;;;;;;0.30;0.30;;;10.80;51.30;;;;;;5053393;28;20078;-85
2023/01/27 09:14:16;;;;;;;0.30;0.30;;;10.90;51.30;;;;;;5053257;28;20387;-84
2023/01/27 09:16:41;;;;;;;0.40;0.40;;;11.10;51.00;;;;;;5051757;28;20031;-84
2023/01/27 09:19:07;;;;;;;0.20;0.20;;;11.30;51.20;;;;;;5053210;28;20430;-84
2023/01/27 09:21:33;;;;;;;0.40;0.40;;;11.40;50.50;;;;;;5051653;28;20025;-85
2023/01/27 09:23:58;;;;;;;0.22;0.22;;;11.10;50.60;;;;;;5051402;28;20491;-82
2023/01/27 09:26:24;;;;;;;0.30;0.30;;;11.10;50.80;;;;;;5051757;28;20479;-86
2023/01/27 09:28:50;;;;;;;0.30;0.30;;;11.10;51.20;;;;;;5053357;28;20121;-87
2023/01/27 09:31:15;;;;;;;0.40;0.40;;;11.50;51.00;;;;;;5051645;28;20110;-85
2023/01/27 09:33:41;;;;;;;0.30;0.30;;;11.70;50.30;;;;;;5043541;28;20729;-85
2023/01/27 09:36:14;;;;;;;0.30;0.30;;;11.90;49.50;;;;;;5038819;28;20029;-86
2023/01/27 09:38:59;;;;;;;0.32;0.32;;;12.10;49.30;;;;;;5038697;28;20099;-86
2023/01/27 09:42:02;;;;;;;0.30;0.30;;;12.00;49.30;;;;;;5038792;28;20045;-88
2023/01/27 09:45:06;;;;;;;0.30;0.30;;;12.10;49.40;;;;;;5039129;28;20484;-86
2023/01/27 09:47:51;;;;;;;0.30;0.30;;;11.90;48.70;;;;;;5021496;28;20487;-86
2023/01/27 09:50:39;;;;;;;0.32;0.32;;;11.80;49.20;;;;;;5038385;28;20424;-86
2023/01/27 09:53:23;;;;;;;0.30;0.30;;;12.00;48.60;;;;;;5038319;28;20087;-85
2023/01/27 09:56:07;;;;;;;0.30;0.30;;;12.10;48.90;;;;;;5038299;28;20033;-84
2023/01/27 09:58:53;;;;;;;0.40;0.40;;;11.90;48.80;;;;;;5038175;28;20032;-85
2023/01/27 10:01:33;;;;;;;0.38;0.38;;;11.80;49.20;;;;;;5038062;28;20021;-86
2023/01/27 10:04:12;;;;;;;0.30;0.30;;;11.70;49.20;;;;;;5037906;28;20128;-85
2023/01/27 10:06:52;;;;;;;0.30;0.30;;;11.50;50.10;;;;;;5038069;28;20029;-84
2023/01/27 10:09:34;;;;;;;0.30;0.30;;;11.60;50.30;;;;;;5037779;28;20033;-86
2023/01/27 10:12:19;;;;;;;0.20;0.20;;;11.40;50.20;;;;;;5037828;28;20075;-85
2023/01/27 10:15:15;;;;;;;0.30;0.30;;;11.70;50.10;;;;;;5037907;28;20112;-86
2023/01/27 10:18:08;;;;;;;0.30;0.30;;;12.00;49.80;;;;;;5037793;28;20082;-86
2023/01/27 10:20:40;;;;;;;0.30;0.30;;;12.20;48.50;;;;;;5037782;28;20025;-85
2023/01/27 10:23:15;;;;;;;0.30;0.30;;;12.20;48.50;;;;;;5037449;28;20048;-85
2023/01/27 10:26:02;;;;;;;0.40;0.40;;;12.30;48.40;;;;;;5037936;28;20025;-85
2023/01/27 10:28:30;;;;;;;0.30;0.30;;;12.40;48.00;;;;;;5037641;28;20047;-86
2023/01/27 10:31:20;;;;;;;0.30;0.30;;;12.40;47.90;;;;;;5037503;28;20017;-85
2023/01/27 10:33:54;;;;;;;0.30;0.30;;;12.50;48.10;;;;;;5037588;28;20057;-85
2023/01/27 10:36:45;;;;;;;0.30;0.30;;;12.50;47.70;;;;;;5037518;28;20112;-85
2023/01/27 10:39:29;;;;;;;0.30;0.30;;;12.50;48.10;;;;;;5037558;28;20037;-86
2023/01/27 10:42:28;;;;;;;0.30;0.30;;;12.50;47.60;;;;;;5037083;28;20041;-86
2023/01/27 10:45:22;;;;;;;0.30;0.30;;;12.00;46.50;;;;;;5036389;28;20048;-85
2023/01/27 10:48:07;;;;;;;0.30;0.30;;;12.10;47.20;;;;;;5037386;28;20078;-84
2023/01/27 10:50:35;;;;;;;0.20;0.20;;;12.20;47.40;;;;;;5037388;28;20642;-84
2023/01/27 10:53:24;;;;;;;0.30;0.30;;;12.40;45.80;;;;;;5037242;28;20029;-85
2023/01/27 10:56:09;;;;;;;0.20;0.20;;;12.70;47.30;;;;;;5037442;28;20017;-85
2023/01/27 10:59:10;;;;;;;0.20;0.20;;;12.80;46.40;;;;;;5037457;28;20052;-85
2023/01/27 11:01:44;;;;;;;0.30;0.30;;;12.80;46.40;;;;;;5037007;28;20039;-86
2023/01/27 11:04:13;;;;;;;0.30;0.30;;;12.70;46.80;;;;;;5036640;28;20021;-87
2023/01/27 11:06:41;;;;;;;0.30;0.30;;;12.30;46.80;;;;;;5036876;28;20486;-85
2023/01/27 11:09:12;;;;;;;0.30;0.30;;;12.40;47.00;;;;;;5037109;28;20029;-85
2023/01/27 11:11:46;;;;;;;0.32;0.32;;;12.50;46.70;;;;;;5036717;28;20101;-86
2023/01/27 11:14:16;;;;;;;0.38;0.38;;;12.40;46.00;;;;;;5036698;28;20035;-86
2023/01/27 11:16:45;;;;;;;;;;;12.20;46.40;;;;;;5037094;28;20052;-86
2023/01/27 11:19:29;;;;;;;0.30;0.30;;;12.10;47.60;;;;;;5036786;28;19995;-85
2023/01/27 11:21:56;;;;;;;0.30;0.30;;;12.00;48.00;;;;;;5036406;28;20426;-85
2023/01/27 11:24:46;;;;;;;0.30;0.30;;;12.20;48.30;;;;;;5036555;28;20033;-86
2023/01/27 11:27:19;;;;;;;0.38;0.38;;;12.30;47.70;;;;;;5027726;28;20043;-85
2023/01/27 11:29:52;;;;;;;0.35;0.35;;;12.20;48.40;;;;;;4688101;28;9999789;-85
2023/01/27 11:32:38;;;;;;;0.40;0.40;;;12.00;48.60;;;;;;5056585;28;20087;-85
2023/01/27 11:35:10;;;;;;;0.40;0.40;;;11.50;49.80;;;;;;5055916;28;20059;-85
2023/01/27 11:37:39;;;;;;;0.30;0.30;;;11.10;50.30;;;;;;5056127;28;20406;-85
2023/01/27 11:40:16;;;;;;;0.30;0.30;;;11.20;50.40;;;;;;5056184;28;20032;-85
2023/01/27 11:42:43;;;;;;;0.40;0.40;;;10.60;51.20;;;;;;5056097;28;20050;-85
2023/01/27 11:45:18;;;;;;;0.30;0.30;;;10.00;52.70;;;;;;5055958;28;20101;-85
2023/01/27 11:47:48;;;;;;;0.30;0.30;;;10.10;53.10;;;;;;5056160;28;20081;-85
2023/01/27 11:50:16;;;;;;;0.40;0.40;;;10.50;52.90;;;;;;5055964;28;20020;-84
2023/01/27 11:52:45;;;;;;;0.30;0.30;;;10.60;52.50;;;;;;5056062;28;20031;-85
2023/01/27 11:55:23;;;;;;;0.35;0.35;;;10.50;52.20;;;;;;5056413;28;20379;-85
2023/01/27 11:58:08;;;;;;;0.30;0.30;;;10.60;52.80;;;;;;5055808;28;20021;-85
2023/01/27 12:00:53;;;;;;;0.30;0.30;;;10.90;53.40;;;;;;5056227;28;20020;-85
2023/01/27 12:03:40;;;;;;;0.28;0.28;;;11.10;52.60;;;;;;5055753;28;20120;-86
2023/01/27 12:06:14;;;;;;;0.30;0.30;;;11.00;52.80;;;;;;5055790;28;20025;-84
2023/01/27 12:08:45;;;;;;;0.30;0.30;;;11.00;52.80;;;;;;5055688;28;20044;-85
2023/01/27 12:11:31;;;;;;;0.30;0.30;;;10.90;53.50;;;;;;5055906;28;20506;-84
2023/01/27 12:14:02;;;;;;;0.30;0.30;;;10.30;54.20;;;;;;5055665;28;20031;-85
2023/01/27 12:16:50;;;;;;;0.30;0.30;;;9.60;55.70;;;;;;5055802;28;20138;-85
2023/01/27 12:19:30;;;;;;;0.20;0.20;;;9.30;56.90;;;;;;5056293;28;20021;-84
2023/01/27 12:22:00;;;;;;;0.30;0.30;;;8.90;58.00;;;;;;5055243;28;20151;-87
2023/01/27 12:24:33;;;;;;;0.30;0.30;;;8.90;58.10;;;;;;5072433;28;20074;-84
2023/01/27 12:27:00;;;;;;;0.30;0.30;;;9.00;57.70;;;;;;5055693;28;20040;-84
2023/01/27 12:29:47;;;;;;;0.30;0.30;;;9.10;58.10;;;;;;5055426;28;20025;-84
2023/01/27 12:32:21;;;;;;;0.30;0.30;;;9.30;57.70;;;;;;5055691;28;20099;-84
2023/01/27 12:34:57;;;;;;;0.30;0.30;;;9.80;56.80;;;;;;5055717;28;20420;-85
2023/01/27 12:37:30;;;;;;;0.30;0.30;;;10.40;55.80;;;;;;5055491;28;20029;-85
2023/01/27 12:40:00;;;;;;;0.20;0.20;;;10.60;55.00;;;;;;5055224;28;20055;-84
2023/01/27 12:42:43;;;;;;;;;;;10.60;54.90;;;;;;5055754;28;20036;-85
2023/01/27 12:45:28;;;;;;;0.40;0.40;;;10.80;55.10;;;;;;5055302;28;19963;-84
2023/01/27 12:48:06;;;;;;;0.32;0.32;;;11.10;54.90;;;;;;5055542;28;20437;-84
2023/01/27 12:50:37;;;;;;;0.25;0.25;;;11.20;54.80;;;;;;5055903;28;20029;-84
2023/01/27 12:53:07;;;;;;;0.40;0.40;;;11.30;54.80;;;;;;5055424;28;20041;-85
2023/01/27 12:55:37;;;;;;;0.35;0.35;;;11.20;54.90;;;;;;5055205;28;20021;-85
2023/01/27 12:58:03;;;;;;;0.40;0.40;;;11.20;54.70;;;;;;5055435;28;20052;-84
2023/01/27 13:00:30;;;;;;;0.30;0.30;;;11.20;55.10;;;;;;5055347;28;20373;-85
2023/01/27 13:03:10;;;;;;;0.30;0.30;;;11.40;55.10;;;;;;5054948;28;20035;-86
2023/01/27 13:05:38;;;;;;;0.30;0.30;;;11.40;54.30;;;;;;5055497;28;20039;-86
2023/01/27 13:08:05;;;;;;;0.30;0.30;;;11.30;54.40;;;;;;5055905;28;20399;-86
2023/01/27 13:10:31;;;;;;;0.30;0.30;;;11.50;54.20;;;;;;5058844;28;20466;-86
2023/01/27 13:12:59;;;;;;;0.30;0.30;;;11.80;54.20;;;;;;5059221;28;20115;-85
2023/01/27 13:15:29;;;;;;;0.35;0.35;;;11.80;53.80;;;;;;5058978;28;20029;-86
2023/01/27 13:18:10;;;;;;;0.22;0.22;;;11.50;53.90;;;;;;5058934;28;20078;-85
2023/01/27 13:20:47;;;;;;;0.32;0.32;;;11.60;54.70;;;;;;5058982;28;20075;-86
2023/01/27 13:23:21;;;;;;;0.40;0.40;;;11.70;54.70;;;;;;5059749;28;20070;-83
2023/01/27 13:26:05;;;;;;;0.30;0.30;;;11.90;54.80;;;;;;5058610;28;20024;-83
2023/01/27 13:28:57;;;;;;;0.30;0.30;;;11.90;54.50;;;;;;5058819;28;20036;-86
2023/01/27 13:32:10;;;;;;;0.30;0.30;;;12.00;54.10;;;;;;5050161;28;20033;-86
2023/01/27 13:35:06;;;;;;;0.30;0.30;;;12.10;54.10;;;;;;4978900;28;20018;-87
2023/01/27 13:38:08;;;;;;;0.20;0.20;;;12.10;53.90;;;;;;4995098;28;20034;-86
2023/01/27 13:40:45;;;;;;;0.30;0.30;;;12.20;54.00;;;;;;4956268;28;20130;-84
2023/01/27 13:43:31;;;;;;;0.35;0.35;;;12.30;54.00;;;;;;4956209;29;20083;-84
2023/01/27 13:46:10;;;;;;;0.30;0.30;;;12.00;53.70;;;;;;4956473;29;20407;-86